sensor_id;sensor_type;location;lat;lon;timestamp;pressure;altitude;pressure_sealevel;temperature;humidity
21096;BME280;10706;49.036;12.112;2024-03-07T00:00:12;98144.53;;;6.25;61.14
21096;BME280;10706;49.036;12.112;2024-03-07T00:02:50;98140.47;;;6.29;61.34
21096;BME280;10706;49.036;12.112;2024-03-07T00:05:21;98140.53;;;6.00;62.04
21096;BME280;10706;49.036;12.112;2024-03-07T00:07:50;98146.31;;;5.82;63.23
21096;BME280;10706;49.036;12.112;2024-03-07T00:10:17;98138.38;;;6.17;61.38
21096;BME280;10706;49.036;12.112;2024-03-07T00:12:43;98147.38;;;6.23;61.32
21096;BME280;10706;49.036;12.112;2024-03-07T00:15:11;98146.31;;;6.11;61.41
21096;BME280;10706;49.036;12.112;2024-03-07T00:17:38;98148.09;;;5.97;62.30
21096;BME280;10706;49.036;12.112;2024-03-07T00:20:06;98147.75;;;6.13;61.77
21096;BME280;10706;49.036;12.112;2024-03-07T00:22:36;98142.22;;;6.08;61.63
21096;BME280;10706;49.036;12.112;2024-03-07T00:25:03;98147.09;;;5.76;63.14
21096;BME280;10706;49.036;12.112;2024-03-07T00:27:32;98144.88;;;6.08;62.05
21096;BME280;10706;49.036;12.112;2024-03-07T00:29:59;98143.91;;;5.88;62.00
21096;BME280;10706;49.036;12.112;2024-03-07T00:32:25;98136.56;;;5.55;63.08
21096;BME280;10706;49.036;12.112;2024-03-07T00:34:53;98142.88;;;5.54;63.49
21096;BME280;10706;49.036;12.112;2024-03-07T00:37:19;98139.09;;;5.70;63.44
21096;BME280;10706;49.036;12.112;2024-03-07T00:39:45;98141.06;;;5.61;63.73
21096;BME280;10706;49.036;12.112;2024-03-07T00:42:11;98130.91;;;5.64;63.18
21096;BME280;10706;49.036;12.112;2024-03-07T00:44:37;98142.69;;;5.90;62.51
21096;BME280;10706;49.036;12.112;2024-03-07T00:47:03;98139.88;;;5.63;62.67
21096;BME280;10706;49.036;12.112;2024-03-07T00:49:30;98145.03;;;5.72;63.33
21096;BME280;10706;49.036;12.112;2024-03-07T00:51:58;98133.47;;;5.51;63.08
21096;BME280;10706;49.036;12.112;2024-03-07T00:54:24;98135.13;;;5.87;62.60
21096;BME280;10706;49.036;12.112;2024-03-07T00:56:50;98132.47;;;5.80;61.67
21096;BME280;10706;49.036;12.112;2024-03-07T00:59:16;98126.53;;;6.13;62.35
21096;BME280;10706;49.036;12.112;2024-03-07T01:01:42;98132.59;;;5.72;62.19
21096;BME280;10706;49.036;12.112;2024-03-07T01:04:08;98122.06;;;5.51;63.18
21096;BME280;10706;49.036;12.112;2024-03-07T01:06:37;98124.88;;;5.42;63.65
21096;BME280;10706;49.036;12.112;2024-03-07T01:09:04;98128.69;;;5.12;64.73
21096;BME280;10706;49.036;12.112;2024-03-07T01:11:30;98124.03;;;5.42;63.96
21096;BME280;10706;49.036;12.112;2024-03-07T01:13:56;98121.97;;;5.37;63.69
21096;BME280;10706;49.036;12.112;2024-03-07T01:16:23;98127.06;;;5.11;65.13
21096;BME280;10706;49.036;12.112;2024-03-07T01:18:49;98130.00;;;4.79;64.98
21096;BME280;10706;49.036;12.112;2024-03-07T01:21:15;98124.69;;;5.01;65.04
21096;BME280;10706;49.036;12.112;2024-03-07T01:23:41;98127.38;;;4.79;65.63
21096;BME280;10706;49.036;12.112;2024-03-07T01:26:07;98128.75;;;4.97;65.93
21096;BME280;10706;49.036;12.112;2024-03-07T01:28:34;98122.31;;;5.06;65.46
21096;BME280;10706;49.036;12.112;2024-03-07T01:31:00;98122.63;;;5.18;64.08
21096;BME280;10706;49.036;12.112;2024-03-07T01:33:26;98116.56;;;5.24;63.97
21096;BME280;10706;49.036;12.112;2024-03-07T01:35:53;98123.63;;;4.95;65.09
21096;BME280;10706;49.036;12.112;2024-03-07T01:38:19;98120.81;;;4.75;65.81
21096;BME280;10706;49.036;12.112;2024-03-07T01:40:45;98120.09;;;4.66;66.29
21096;BME280;10706;49.036;12.112;2024-03-07T01:43:11;98114.19;;;5.07;65.17
21096;BME280;10706;49.036;12.112;2024-03-07T01:45:38;98113.75;;;5.04;64.48
21096;BME280;10706;49.036;12.112;2024-03-07T01:48:05;98111.84;;;4.76;64.86
21096;BME280;10706;49.036;12.112;2024-03-07T01:50:32;98117.53;;;4.73;65.53
21096;BME280;10706;49.036;12.112;2024-03-07T01:52:59;98109.72;;;4.65;65.91
21096;BME280;10706;49.036;12.112;2024-03-07T01:55:27;98102.41;;;4.45;66.54
21096;BME280;10706;49.036;12.112;2024-03-07T01:57:59;98110.13;;;4.11;68.49
21096;BME280;10706;49.036;12.112;2024-03-07T02:00:25;98110.25;;;4.39;66.79
21096;BME280;10706;49.036;12.112;2024-03-07T02:02:53;98109.63;;;4.22;67.77
21096;BME280;10706;49.036;12.112;2024-03-07T02:05:20;98104.47;;;4.14;68.67
21096;BME280;10706;49.036;12.112;2024-03-07T02:07:46;98104.13;;;4.02;68.40
21096;BME280;10706;49.036;12.112;2024-03-07T02:10:13;98104.22;;;3.79;68.67
21096;BME280;10706;49.036;12.112;2024-03-07T02:12:39;98099.13;;;3.62;69.10
21096;BME280;10706;49.036;12.112;2024-03-07T02:15:05;98095.31;;;3.65;68.97
21096;BME280;10706;49.036;12.112;2024-03-07T02:17:31;98093.81;;;3.77;69.42
21096;BME280;10706;49.036;12.112;2024-03-07T02:19:57;98090.91;;;4.02;69.05
21096;BME280;10706;49.036;12.112;2024-03-07T02:22:24;98089.56;;;3.91;68.68
21096;BME280;10706;49.036;12.112;2024-03-07T02:24:52;98087.72;;;3.92;67.92
21096;BME280;10706;49.036;12.112;2024-03-07T02:27:18;98092.66;;;3.95;68.66
21096;BME280;10706;49.036;12.112;2024-03-07T02:29:44;98092.09;;;3.69;70.06
21096;BME280;10706;49.036;12.112;2024-03-07T02:32:11;98083.47;;;3.91;69.27
21096;BME280;10706;49.036;12.112;2024-03-07T02:34:37;98089.22;;;3.79;68.85
21096;BME280;10706;49.036;12.112;2024-03-07T02:37:04;98085.28;;;3.60;69.54
21096;BME280;10706;49.036;12.112;2024-03-07T02:39:30;98084.38;;;3.38;69.84
21096;BME280;10706;49.036;12.112;2024-03-07T02:41:56;98081.72;;;3.38;70.29
21096;BME280;10706;49.036;12.112;2024-03-07T02:44:22;98081.75;;;3.53;69.81
21096;BME280;10706;49.036;12.112;2024-03-07T02:46:48;98084.63;;;4.03;69.42
21096;BME280;10706;49.036;12.112;2024-03-07T02:49:14;98077.72;;;3.87;69.53
21096;BME280;10706;49.036;12.112;2024-03-07T02:51:40;98084.28;;;3.46;69.74
21096;BME280;10706;49.036;12.112;2024-03-07T02:54:08;98087.84;;;3.83;68.65
21096;BME280;10706;49.036;12.112;2024-03-07T02:56:34;98082.91;;;3.95;68.22
21096;BME280;10706;49.036;12.112;2024-03-07T02:59:01;98096.00;;;3.88;68.45
21096;BME280;10706;49.036;12.112;2024-03-07T03:01:27;98085.94;;;3.62;70.52
21096;BME280;10706;49.036;12.112;2024-03-07T03:03:53;98078.72;;;3.71;68.67
21096;BME280;10706;49.036;12.112;2024-03-07T03:06:19;98081.81;;;3.60;70.22
21096;BME280;10706;49.036;12.112;2024-03-07T03:08:48;98083.66;;;3.59;70.22
21096;BME280;10706;49.036;12.112;2024-03-07T03:11:14;98086.38;;;3.36;71.73
21096;BME280;10706;49.036;12.112;2024-03-07T03:13:42;98083.94;;;3.11;72.85
21096;BME280;10706;49.036;12.112;2024-03-07T03:16:08;98086.44;;;3.28;71.08
21096;BME280;10706;49.036;12.112;2024-03-07T03:18:35;98079.44;;;3.50;69.74
21096;BME280;10706;49.036;12.112;2024-03-07T03:21:02;98081.28;;;3.49;71.54
21096;BME280;10706;49.036;12.112;2024-03-07T03:23:29;98078.28;;;3.00;71.29
21096;BME280;10706;49.036;12.112;2024-03-07T03:25:55;98084.53;;;3.22;72.46
21096;BME280;10706;49.036;12.112;2024-03-07T03:28:22;98079.09;;;3.38;71.02
21096;BME280;10706;49.036;12.112;2024-03-07T03:30:49;98084.81;;;3.86;70.16
21096;BME280;10706;49.036;12.112;2024-03-07T03:33:16;98081.34;;;3.41;70.63
21096;BME280;10706;49.036;12.112;2024-03-07T03:35:42;98088.19;;;3.50;71.77
21096;BME280;10706;49.036;12.112;2024-03-07T03:38:08;98079.63;;;3.34;71.14
21096;BME280;10706;49.036;12.112;2024-03-07T03:40:35;98088.28;;;4.02;70.11
21096;BME280;10706;49.036;12.112;2024-03-07T03:43:01;98090.22;;;4.29;68.38
21096;BME280;10706;49.036;12.112;2024-03-07T03:45:27;98084.94;;;4.29;67.76
21096;BME280;10706;49.036;12.112;2024-03-07T03:47:54;98087.78;;;4.50;68.17
21096;BME280;10706;49.036;12.112;2024-03-07T03:50:20;98093.88;;;4.50;67.70
21096;BME280;10706;49.036;12.112;2024-03-07T03:52:49;98086.75;;;4.29;68.80
21096;BME280;10706;49.036;12.112;2024-03-07T03:55:15;98076.16;;;4.44;67.69
21096;BME280;10706;49.036;12.112;2024-03-07T03:57:43;98078.06;;;4.35;68.27
21096;BME280;10706;49.036;12.112;2024-03-07T04:00:10;98075.09;;;4.23;67.73
21096;BME280;10706;49.036;12.112;2024-03-07T04:02:40;98076.22;;;4.14;68.88
21096;BME280;10706;49.036;12.112;2024-03-07T04:05:07;98071.34;;;4.33;67.83
21096;BME280;10706;49.036;12.112;2024-03-07T04:07:36;98078.00;;;4.28;67.85
21096;BME280;10706;49.036;12.112;2024-03-07T04:10:02;98071.06;;;4.27;67.50
21096;BME280;10706;49.036;12.112;2024-03-07T04:12:39;98077.28;;;4.20;67.81
21096;BME280;10706;49.036;12.112;2024-03-07T04:15:13;98078.59;;;4.09;68.25
21096;BME280;10706;49.036;12.112;2024-03-07T04:17:42;98076.78;;;4.09;68.19
21096;BME280;10706;49.036;12.112;2024-03-07T04:20:09;98075.69;;;4.40;67.01
21096;BME280;10706;49.036;12.112;2024-03-07T04:22:39;98076.16;;;4.44;66.79
21096;BME280;10706;49.036;12.112;2024-03-07T04:25:06;98077.63;;;4.32;67.36
21096;BME280;10706;49.036;12.112;2024-03-07T04:27:34;98071.78;;;4.00;68.58
21096;BME280;10706;49.036;12.112;2024-03-07T04:30:09;98074.06;;;4.03;68.69
21096;BME280;10706;49.036;12.112;2024-03-07T04:32:40;98079.00;;;3.46;69.50
21096;BME280;10706;49.036;12.112;2024-03-07T04:35:08;98077.78;;;3.94;68.38
21096;BME280;10706;49.036;12.112;2024-03-07T04:37:39;98076.69;;;4.03;68.74
21096;BME280;10706;49.036;12.112;2024-03-07T04:40:09;98077.91;;;3.56;70.46
21096;BME280;10706;49.036;12.112;2024-03-07T04:42:48;98077.44;;;3.97;68.79
21096;BME280;10706;49.036;12.112;2024-03-07T04:45:15;98075.19;;;3.34;69.44
21096;BME280;10706;49.036;12.112;2024-03-07T04:47:42;98076.00;;;3.49;70.23
21096;BME280;10706;49.036;12.112;2024-03-07T04:50:09;98082.88;;;3.21;72.40
21096;BME280;10706;49.036;12.112;2024-03-07T04:52:39;98081.19;;;3.43;70.21
21096;BME280;10706;49.036;12.112;2024-03-07T04:55:09;98077.13;;;3.17;71.46
21096;BME280;10706;49.036;12.112;2024-03-07T04:57:39;98073.63;;;3.55;70.34
21096;BME280;10706;49.036;12.112;2024-03-07T05:00:13;98072.91;;;3.91;69.42
21096;BME280;10706;49.036;12.112;2024-03-07T05:02:45;98076.25;;;3.69;68.86
21096;BME280;10706;49.036;12.112;2024-03-07T05:05:11;98078.25;;;3.82;68.38
21096;BME280;10706;49.036;12.112;2024-03-07T05:07:38;98069.25;;;3.77;69.65
21096;BME280;10706;49.036;12.112;2024-03-07T05:10:07;98076.72;;;3.58;68.47
21096;BME280;10706;49.036;12.112;2024-03-07T05:12:34;98075.00;;;3.50;69.72
21096;BME280;10706;49.036;12.112;2024-03-07T05:15:00;98072.81;;;3.69;69.61
21096;BME280;10706;49.036;12.112;2024-03-07T05:17:26;98073.53;;;3.63;68.17
21096;BME280;10706;49.036;12.112;2024-03-07T05:19:52;98077.09;;;3.40;68.99
21096;BME280;10706;49.036;12.112;2024-03-07T05:22:18;98080.88;;;3.23;70.92
21096;BME280;10706;49.036;12.112;2024-03-07T05:24:46;98084.31;;;3.08;71.09
21096;BME280;10706;49.036;12.112;2024-03-07T05:27:11;98083.47;;;3.46;70.77
21096;BME280;10706;49.036;12.112;2024-03-07T05:29:38;98093.84;;;3.47;69.00
21096;BME280;10706;49.036;12.112;2024-03-07T05:32:21;98081.28;;;3.35;70.43
21096;BME280;10706;49.036;12.112;2024-03-07T05:34:48;98087.84;;;2.78;72.01
21096;BME280;10706;49.036;12.112;2024-03-07T05:37:14;98094.50;;;3.11;71.18
21096;BME280;10706;49.036;12.112;2024-03-07T05:39:40;98092.75;;;3.42;69.24
21096;BME280;10706;49.036;12.112;2024-03-07T05:42:06;98096.00;;;2.91;71.78
21096;BME280;10706;49.036;12.112;2024-03-07T05:44:33;98104.03;;;2.75;72.68
21096;BME280;10706;49.036;12.112;2024-03-07T05:46:59;98099.28;;;2.93;71.66
21096;BME280;10706;49.036;12.112;2024-03-07T05:49:25;98099.34;;;2.85;72.11
21096;BME280;10706;49.036;12.112;2024-03-07T05:51:51;98095.69;;;3.09;70.81
21096;BME280;10706;49.036;12.112;2024-03-07T05:54:17;98098.34;;;3.24;72.19
21096;BME280;10706;49.036;12.112;2024-03-07T05:56:42;98095.28;;;3.50;70.88
21096;BME280;10706;49.036;12.112;2024-03-07T05:59:09;98097.38;;;3.69;70.29
21096;BME280;10706;49.036;12.112;2024-03-07T06:01:38;98102.50;;;3.86;68.37
21096;BME280;10706;49.036;12.112;2024-03-07T06:04:07;98100.91;;;4.06;67.68
21096;BME280;10706;49.036;12.112;2024-03-07T06:06:36;98097.66;;;4.04;68.85
21096;BME280;10706;49.036;12.112;2024-03-07T06:09:09;98095.44;;;4.23;68.27
21096;BME280;10706;49.036;12.112;2024-03-07T06:11:36;98101.94;;;4.05;68.77
21096;BME280;10706;49.036;12.112;2024-03-07T06:14:04;98104.44;;;4.28;68.94
21096;BME280;10706;49.036;12.112;2024-03-07T06:16:35;98101.66;;;4.52;66.92
21096;BME280;10706;49.036;12.112;2024-03-07T06:19:03;98108.50;;;4.09;68.00
21096;BME280;10706;49.036;12.112;2024-03-07T06:21:30;98104.03;;;4.46;66.71
21096;BME280;10706;49.036;12.112;2024-03-07T06:24:02;98111.72;;;4.63;67.19
21096;BME280;10706;49.036;12.112;2024-03-07T06:26:30;98108.28;;;4.62;67.12
21096;BME280;10706;49.036;12.112;2024-03-07T06:29:16;98107.25;;;4.63;67.37
21096;BME280;10706;49.036;12.112;2024-03-07T06:31:43;98106.38;;;4.20;67.36
21096;BME280;10706;49.036;12.112;2024-03-07T06:34:12;98100.19;;;4.13;68.54
21096;BME280;10706;49.036;12.112;2024-03-07T06:36:39;98104.25;;;4.66;66.95
21096;BME280;10706;49.036;12.112;2024-03-07T06:39:08;98106.47;;;4.48;67.12
21096;BME280;10706;49.036;12.112;2024-03-07T06:41:36;98108.94;;;4.50;66.96
21096;BME280;10706;49.036;12.112;2024-03-07T06:44:03;98109.22;;;4.03;69.04
21096;BME280;10706;49.036;12.112;2024-03-07T06:46:29;98105.31;;;4.51;67.63
21096;BME280;10706;49.036;12.112;2024-03-07T06:48:56;98109.66;;;4.58;67.47
21096;BME280;10706;49.036;12.112;2024-03-07T06:51:22;98106.09;;;4.15;69.20
21096;BME280;10706;49.036;12.112;2024-03-07T06:53:48;98110.38;;;4.16;68.42
21096;BME280;10706;49.036;12.112;2024-03-07T06:56:18;98107.69;;;3.79;70.15
21096;BME280;10706;49.036;12.112;2024-03-07T06:58:44;98108.13;;;3.98;71.43
21096;BME280;10706;49.036;12.112;2024-03-07T07:01:14;98111.41;;;4.51;68.23
21096;BME280;10706;49.036;12.112;2024-03-07T07:03:41;98108.13;;;4.71;68.14
21096;BME280;10706;49.036;12.112;2024-03-07T07:06:11;98109.41;;;4.75;67.96
21096;BME280;10706;49.036;12.112;2024-03-07T07:08:37;98113.81;;;4.67;68.21
21096;BME280;10706;49.036;12.112;2024-03-07T07:11:04;98116.91;;;4.71;67.70
21096;BME280;10706;49.036;12.112;2024-03-07T07:13:31;98117.53;;;4.95;67.28
21096;BME280;10706;49.036;12.112;2024-03-07T07:15:57;98114.13;;;5.22;65.87
21096;BME280;10706;49.036;12.112;2024-03-07T07:18:23;98119.25;;;5.59;65.78
21096;BME280;10706;49.036;12.112;2024-03-07T07:20:50;98115.91;;;4.94;67.69
21096;BME280;10706;49.036;12.112;2024-03-07T07:23:18;98115.03;;;5.36;66.44
21096;BME280;10706;49.036;12.112;2024-03-07T07:25:44;98116.94;;;5.42;66.57
21096;BME280;10706;49.036;12.112;2024-03-07T07:28:12;98107.78;;;5.45;65.95
21096;BME280;10706;49.036;12.112;2024-03-07T07:30:38;98110.50;;;5.58;65.64
21096;BME280;10706;49.036;12.112;2024-03-07T07:33:04;98109.31;;;5.96;64.13
21096;BME280;10706;49.036;12.112;2024-03-07T07:35:30;98113.69;;;5.47;66.35
21096;BME280;10706;49.036;12.112;2024-03-07T07:37:57;98103.81;;;5.62;65.37
21096;BME280;10706;49.036;12.112;2024-03-07T07:40:24;98108.97;;;5.77;65.45
21096;BME280;10706;49.036;12.112;2024-03-07T07:42:53;98110.97;;;5.40;67.43
21096;BME280;10706;49.036;12.112;2024-03-07T07:45:20;98103.63;;;5.36;67.19
21096;BME280;10706;49.036;12.112;2024-03-07T07:47:49;98105.03;;;5.10;68.25
21096;BME280;10706;49.036;12.112;2024-03-07T07:50:18;98108.09;;;5.35;68.60
21096;BME280;10706;49.036;12.112;2024-03-07T07:52:55;98110.63;;;6.13;66.01
21096;BME280;10706;49.036;12.112;2024-03-07T07:55:26;98100.94;;;6.40;65.75
21096;BME280;10706;49.036;12.112;2024-03-07T07:57:57;98098.66;;;5.89;67.16
21096;BME280;10706;49.036;12.112;2024-03-07T08:00:28;98095.44;;;5.94;67.56
21096;BME280;10706;49.036;12.112;2024-03-07T08:03:02;98104.13;;;6.22;66.68
21096;BME280;10706;49.036;12.112;2024-03-07T08:05:34;98102.88;;;6.12;66.82
21096;BME280;10706;49.036;12.112;2024-03-07T08:08:06;98100.22;;;6.67;65.50
21096;BME280;10706;49.036;12.112;2024-03-07T08:10:34;98102.69;;;6.81;65.21
21096;BME280;10706;49.036;12.112;2024-03-07T08:13:02;98093.88;;;6.68;65.37
21096;BME280;10706;49.036;12.112;2024-03-07T08:15:30;98098.38;;;6.74;66.13
21096;BME280;10706;49.036;12.112;2024-03-07T08:17:58;98099.03;;;7.09;64.40
21096;BME280;10706;49.036;12.112;2024-03-07T08:20:25;98088.00;;;6.86;65.76
21096;BME280;10706;49.036;12.112;2024-03-07T08:22:55;98095.53;;;7.35;63.31
21096;BME280;10706;49.036;12.112;2024-03-07T08:25:26;98090.44;;;7.20;64.67
21096;BME280;10706;49.036;12.112;2024-03-07T08:27:54;98090.66;;;7.19;65.15
21096;BME280;10706;49.036;12.112;2024-03-07T08:30:20;98086.56;;;7.50;64.69
21096;BME280;10706;49.036;12.112;2024-03-07T08:32:52;98085.38;;;8.11;63.84
21096;BME280;10706;49.036;12.112;2024-03-07T08:35:18;98091.56;;;7.91;64.09
21096;BME280;10706;49.036;12.112;2024-03-07T08:37:46;98092.03;;;7.62;63.83
21096;BME280;10706;49.036;12.112;2024-03-07T08:40:19;98101.06;;;7.14;66.51
21096;BME280;10706;49.036;12.112;2024-03-07T08:42:47;98088.13;;;7.77;64.32
21096;BME280;10706;49.036;12.112;2024-03-07T08:45:13;98085.81;;;8.01;63.82
21096;BME280;10706;49.036;12.112;2024-03-07T08:47:45;98087.78;;;7.20;66.08
21096;BME280;10706;49.036;12.112;2024-03-07T08:50:12;98091.06;;;8.14;63.14
21096;BME280;10706;49.036;12.112;2024-03-07T08:52:40;98086.13;;;7.66;63.83
21096;BME280;10706;49.036;12.112;2024-03-07T08:55:07;98084.28;;;7.67;64.94
21096;BME280;10706;49.036;12.112;2024-03-07T08:57:36;98092.78;;;8.02;63.57
21096;BME280;10706;49.036;12.112;2024-03-07T09:00:04;98084.47;;;8.30;63.14
21096;BME280;10706;49.036;12.112;2024-03-07T09:02:38;98085.91;;;7.68;64.33
21096;BME280;10706;49.036;12.112;2024-03-07T09:05:05;98088.25;;;8.09;63.12
21096;BME280;10706;49.036;12.112;2024-03-07T09:07:32;98089.59;;;7.60;63.91
21096;BME280;10706;49.036;12.112;2024-03-07T09:09:58;98098.41;;;6.94;65.69
21096;BME280;10706;49.036;12.112;2024-03-07T09:12:24;98087.53;;;7.69;63.47
21096;BME280;10706;49.036;12.112;2024-03-07T09:14:54;98088.47;;;8.08;63.00
21096;BME280;10706;49.036;12.112;2024-03-07T09:17:21;98081.53;;;7.93;62.26
21096;BME280;10706;49.036;12.112;2024-03-07T09:19:47;98092.88;;;7.49;63.87
21096;BME280;10706;49.036;12.112;2024-03-07T09:22:13;98084.03;;;7.75;63.11
21096;BME280;10706;49.036;12.112;2024-03-07T09:24:39;98083.28;;;8.20;60.81
21096;BME280;10706;49.036;12.112;2024-03-07T09:27:05;98086.00;;;8.13;62.20
21096;BME280;10706;49.036;12.112;2024-03-07T09:29:31;98084.69;;;7.70;63.75
21096;BME280;10706;49.036;12.112;2024-03-07T09:31:57;98087.84;;;7.99;62.28
21096;BME280;10706;49.036;12.112;2024-03-07T09:34:24;98082.53;;;7.99;62.06
21096;BME280;10706;49.036;12.112;2024-03-07T09:36:51;98079.00;;;7.33;64.21
21096;BME280;10706;49.036;12.112;2024-03-07T09:39:18;98083.00;;;7.83;63.64
21096;BME280;10706;49.036;12.112;2024-03-07T09:41:44;98079.97;;;7.66;62.29
21096;BME280;10706;49.036;12.112;2024-03-07T09:44:14;98074.00;;;7.90;61.54
21096;BME280;10706;49.036;12.112;2024-03-07T09:46:44;98078.19;;;7.53;63.61
21096;BME280;10706;49.036;12.112;2024-03-07T09:49:12;98081.13;;;7.90;61.47
21096;BME280;10706;49.036;12.112;2024-03-07T09:51:39;98080.06;;;8.04;61.75
21096;BME280;10706;49.036;12.112;2024-03-07T09:54:05;98079.31;;;7.84;61.97
21096;BME280;10706;49.036;12.112;2024-03-07T09:56:32;98079.84;;;7.34;63.71
21096;BME280;10706;49.036;12.112;2024-03-07T09:58:58;98078.63;;;8.15;60.94
21096;BME280;10706;49.036;12.112;2024-03-07T10:01:27;98080.94;;;7.91;60.95
21096;BME280;10706;49.036;12.112;2024-03-07T10:04:00;98081.56;;;8.38;59.50
21096;BME280;10706;49.036;12.112;2024-03-07T10:06:38;98080.94;;;7.98;60.08
21096;BME280;10706;49.036;12.112;2024-03-07T10:09:06;98075.19;;;8.85;57.55
21096;BME280;10706;49.036;12.112;2024-03-07T10:11:33;98080.47;;;8.60;58.34
21096;BME280;10706;49.036;12.112;2024-03-07T10:14:03;98078.91;;;9.09;57.63
21096;BME280;10706;49.036;12.112;2024-03-07T10:16:31;98082.78;;;8.81;56.64
21096;BME280;10706;49.036;12.112;2024-03-07T10:18:58;98079.09;;;8.82;56.21
21096;BME280;10706;49.036;12.112;2024-03-07T10:21:26;98077.53;;;9.25;54.64
21096;BME280;10706;49.036;12.112;2024-03-07T10:24:05;98074.56;;;9.58;54.38
21096;BME280;10706;49.036;12.112;2024-03-07T10:26:35;98070.63;;;9.42;53.59
21096;BME280;10706;49.036;12.112;2024-03-07T10:29:01;98072.91;;;8.88;54.85
21096;BME280;10706;49.036;12.112;2024-03-07T10:31:34;98071.56;;;8.72;54.84
21096;BME280;10706;49.036;12.112;2024-03-07T10:34:03;98062.97;;;8.77;55.76
21096;BME280;10706;49.036;12.112;2024-03-07T10:36:32;98064.34;;;9.37;53.71
21096;BME280;10706;49.036;12.112;2024-03-07T10:38:59;98054.91;;;10.26;53.46
21096;BME280;10706;49.036;12.112;2024-03-07T10:41:40;98061.44;;;9.38;54.75
21096;BME280;10706;49.036;12.112;2024-03-07T10:44:11;98054.34;;;9.50;54.37
21096;BME280;10706;49.036;12.112;2024-03-07T10:46:39;98057.75;;;10.13;53.16
21096;BME280;10706;49.036;12.112;2024-03-07T10:49:08;98059.41;;;10.63;51.58
21096;BME280;10706;49.036;12.112;2024-03-07T10:51:46;98052.63;;;10.91;51.25
21096;BME280;10706;49.036;12.112;2024-03-07T10:54:28;98058.28;;;10.40;51.86
21096;BME280;10706;49.036;12.112;2024-03-07T10:57:19;98057.19;;;10.60;50.24
21096;BME280;10706;49.036;12.112;2024-03-07T10:59:50;98050.34;;;10.34;50.33
21096;BME280;10706;49.036;12.112;2024-03-07T11:02:37;98046.28;;;9.57;51.97
21096;BME280;10706;49.036;12.112;2024-03-07T11:05:11;98049.53;;;9.96;51.76
21096;BME280;10706;49.036;12.112;2024-03-07T11:07:39;98048.78;;;10.44;51.21
21096;BME280;10706;49.036;12.112;2024-03-07T11:10:05;98036.75;;;11.07;50.30
21096;BME280;10706;49.036;12.112;2024-03-07T11:12:39;98037.31;;;9.70;51.03
21096;BME280;10706;49.036;12.112;2024-03-07T11:15:08;98037.66;;;10.29;50.44
21096;BME280;10706;49.036;12.112;2024-03-07T11:17:45;98038.34;;;10.06;50.07
21096;BME280;10706;49.036;12.112;2024-03-07T11:22:46;98037.91;;;10.09;49.96
21096;BME280;10706;49.036;12.112;2024-03-07T11:25:13;98035.25;;;9.90;50.10
21096;BME280;10706;49.036;12.112;2024-03-07T11:27:39;98031.72;;;10.99;50.06
21096;BME280;10706;49.036;12.112;2024-03-07T11:30:09;98018.63;;;11.09;48.19
21096;BME280;10706;49.036;12.112;2024-03-07T11:32:37;98013.19;;;12.04;47.39
21096;BME280;10706;49.036;12.112;2024-03-07T11:35:12;98015.13;;;12.09;47.37
21096;BME280;10706;49.036;12.112;2024-03-07T11:37:44;98009.91;;;11.02;48.16
21096;BME280;10706;49.036;12.112;2024-03-07T11:42:47;98006.38;;;11.61;46.86
21096;BME280;10706;49.036;12.112;2024-03-07T11:45:14;98001.25;;;11.59;45.58
21096;BME280;10706;49.036;12.112;2024-03-07T11:48:07;98004.53;;;11.26;48.65
21096;BME280;10706;49.036;12.112;2024-03-07T11:50:34;97994.91;;;11.89;46.57
21096;BME280;10706;49.036;12.112;2024-03-07T11:53:04;97998.72;;;11.41;47.64
21096;BME280;10706;49.036;12.112;2024-03-07T11:55:34;97994.34;;;11.23;48.55
21096;BME280;10706;49.036;12.112;2024-03-07T11:58:15;97991.88;;;11.45;48.34
21096;BME280;10706;49.036;12.112;2024-03-07T12:00:47;97987.69;;;11.49;47.08
21096;BME280;10706;49.036;12.112;2024-03-07T12:03:23;97993.19;;;11.19;48.05
21096;BME280;10706;49.036;12.112;2024-03-07T12:05:51;97984.63;;;11.57;47.05
21096;BME280;10706;49.036;12.112;2024-03-07T12:08:18;97993.41;;;11.29;46.83
21096;BME280;10706;49.036;12.112;2024-03-07T12:10:48;97986.41;;;11.52;47.45
21096;BME280;10706;49.036;12.112;2024-03-07T12:13:19;97980.97;;;11.87;47.22
21096;BME280;10706;49.036;12.112;2024-03-07T12:15:46;97982.88;;;11.63;47.45
21096;BME280;10706;49.036;12.112;2024-03-07T12:18:12;97995.63;;;12.54;45.11
21096;BME280;10706;49.036;12.112;2024-03-07T12:20:44;97977.47;;;12.27;44.93
21096;BME280;10706;49.036;12.112;2024-03-07T12:23:16;97979.31;;;12.55;44.05
21096;BME280;10706;49.036;12.112;2024-03-07T12:25:45;97982.66;;;12.62;45.37
21096;BME280;10706;49.036;12.112;2024-03-07T12:28:15;97976.31;;;12.23;45.57
21096;BME280;10706;49.036;12.112;2024-03-07T12:30:55;97972.44;;;12.59;44.77
21096;BME280;10706;49.036;12.112;2024-03-07T12:33:23;97971.34;;;12.43;45.79
21096;BME280;10706;49.036;12.112;2024-03-07T12:35:53;97968.69;;;12.77;44.51
21096;BME280;10706;49.036;12.112;2024-03-07T12:38:25;97971.25;;;12.55;44.89
21096;BME280;10706;49.036;12.112;2024-03-07T12:41:08;97971.69;;;12.64;43.56
21096;BME280;10706;49.036;12.112;2024-03-07T12:43:40;97962.81;;;11.89;45.44
21096;BME280;10706;49.036;12.112;2024-03-07T12:46:12;97969.13;;;12.40;45.23
21096;BME280;10706;49.036;12.112;2024-03-07T12:48:39;97960.97;;;11.90;45.33
21096;BME280;10706;49.036;12.112;2024-03-07T12:51:05;97961.28;;;11.41;46.82
21096;BME280;10706;49.036;12.112;2024-03-07T12:53:31;97958.44;;;11.19;47.32
21096;BME280;10706;49.036;12.112;2024-03-07T12:56:01;97963.38;;;11.62;46.27
21096;BME280;10706;49.036;12.112;2024-03-07T12:58:28;97962.50;;;11.09;47.58
21096;BME280;10706;49.036;12.112;2024-03-07T13:00:55;97970.25;;;11.11;47.65
21096;BME280;10706;49.036;12.112;2024-03-07T13:03:22;97967.38;;;10.35;49.55
21096;BME280;10706;49.036;12.112;2024-03-07T13:05:48;97964.19;;;10.57;48.45
21096;BME280;10706;49.036;12.112;2024-03-07T13:08:13;97968.41;;;10.34;49.56